Time;durP1;ratioP1;P1;durP2;ratioP2;P2;SDS_P1;SDS_P2;PMS_P1;PMS_P2;Temp;Humidity;BMP_temperature;BMP_pressure;BME280_temperature;BME280_humidity;BME280_pressure;Samples;Min_cycle;Max_cycle;Signal;HPM_P1;HPM_P2
2021/08/02 00:01:47;;;;;;;4.85;1.77;;;15.50;96.30;;;;;;5012144;28;20022;-72
2021/08/02 00:04:18;;;;;;;3.35;1.85;;;15.50;96.10;;;;;;5010644;28;20022;-71
2021/08/02 00:06:58;;;;;;;3.37;2.40;;;15.50;96.10;;;;;;5009684;28;20036;-72
2021/08/02 00:09:36;;;;;;;4.18;1.98;;;15.50;96.10;;;;;;5010617;28;20506;-71
2021/08/02 00:12:16;;;;;;;8.23;2.22;;;15.50;95.90;;;;;;5016177;28;20380;-71
2021/08/02 00:14:43;;;;;;;3.78;2.05;;;15.50;95.70;;;;;;5013079;28;20037;-73
2021/08/02 00:17:09;;;;;;;3.60;1.70;;;15.50;96.00;;;;;;5010948;28;20034;-71
2021/08/02 00:19:35;;;;;;;4.25;2.00;;;15.50;96.30;;;;;;5010386;28;20540;-72
2021/08/02 00:22:02;;;;;;;6.18;2.10;;;15.50;95.90;;;;;;5022402;28;20160;-72
2021/08/02 00:24:28;;;;;;;6.53;1.80;;;15.60;96.00;;;;;;5013737;28;20643;-71
2021/08/02 00:26:56;;;;;;;3.97;1.63;;;15.50;95.80;;;;;;5014500;28;20030;-72
2021/08/02 00:29:23;;;;;;;3.05;1.55;;;15.60;95.90;;;;;;5008534;28;20040;-70
2021/08/02 00:31:50;;;;;;;3.58;1.73;;;15.60;95.70;;;;;;5014464;28;20034;-75
2021/08/02 00:34:16;;;;;;;3.28;1.65;;;15.60;95.80;;;;;;5014588;28;20040;-70
2021/08/02 00:36:50;;;;;;;5.25;1.83;;;15.60;95.90;;;;;;5016871;28;20106;-71
2021/08/02 00:39:42;;;;;;;3.13;1.80;;;15.60;95.60;;;;;;5018488;28;20055;-71
2021/08/02 00:42:28;;;;;;;6.65;1.90;;;15.60;95.50;;;;;;5018934;28;20028;-71
2021/08/02 00:45:15;;;;;;;3.00;1.30;;;15.60;95.00;;;;;;5020422;28;20037;-70
2021/08/02 00:48:05;;;;;;;3.08;1.58;;;15.50;95.30;;;;;;5021927;28;20037;-71
2021/08/02 00:50:43;;;;;;;3.67;1.70;;;15.60;95.60;;;;;;5023830;28;20503;-71
2021/08/02 00:53:17;;;;;;;5.13;1.65;;;15.50;95.40;;;;;;5015823;28;20030;-71
2021/08/02 00:55:45;;;;;;;5.70;1.92;;;15.60;95.70;;;;;;5016511;28;20068;-71
2021/08/02 00:58:14;;;;;;;4.13;1.90;;;15.50;95.30;;;;;;5012975;28;20033;-73
2021/08/02 01:00:41;;;;;;;5.15;1.63;;;15.50;95.40;;;;;;5021771;28;20022;-71
2021/08/02 01:03:09;;;;;;;5.15;1.60;;;15.50;95.30;;;;;;5016218;28;20046;-71
2021/08/02 01:05:37;;;;;;;3.50;1.40;;;15.50;94.90;;;;;;5014453;28;20034;-71
2021/08/02 01:08:11;;;;;;;3.63;1.55;;;15.50;95.20;;;;;;5014464;28;20038;-71
2021/08/02 01:10:41;;;;;;;4.60;1.10;;;15.50;95.20;;;;;;5021749;28;20101;-71
2021/08/02 01:13:07;;;;;;;3.70;1.75;;;15.50;95.40;;;;;;5023930;28;20026;-71
2021/08/02 01:15:35;;;;;;;3.55;1.45;;;15.50;95.10;;;;;;5021473;28;20026;-71
2021/08/02 01:18:01;;;;;;;2.05;1.20;;;15.50;95.00;;;;;;5019487;28;20033;-71
2021/08/02 01:20:31;;;;;;;3.65;1.40;;;15.40;95.10;;;;;;5013667;28;20076;-72
2021/08/02 01:22:59;;;;;;;7.25;1.52;;;15.40;95.10;;;;;;5011641;28;20037;-71
2021/08/02 01:25:33;;;;;;;2.47;1.40;;;15.50;95.20;;;;;;5022806;28;20021;-71
2021/08/02 01:28:14;;;;;;;2.03;1.30;;;15.40;94.80;;;;;;5020094;28;20060;-71
2021/08/02 01:30:51;;;;;;;2.72;1.35;;;15.40;95.10;;;;;;5013999;28;20022;-71
2021/08/02 01:33:28;;;;;;;3.75;1.35;;;15.40;95.40;;;;;;5019278;28;20039;-71
2021/08/02 01:36:03;;;;;;;6.63;1.40;;;15.40;95.30;;;;;;5011232;28;20037;-73
2021/08/02 01:38:29;;;;;;;5.10;1.52;;;15.40;95.30;;;;;;5014599;28;20100;-72
2021/08/02 01:40:56;;;;;;;3.45;1.38;;;15.40;95.00;;;;;;5018376;28;20018;-71
2021/08/02 01:43:22;;;;;;;5.13;1.60;;;15.40;95.00;;;;;;5017491;28;21003;-71
2021/08/02 01:45:55;;;;;;;3.45;1.33;;;15.40;95.20;;;;;;5016195;28;20113;-71
2021/08/02 01:48:49;;;;;;;6.78;1.45;;;15.40;95.20;;;;;;5019523;28;20546;-72
2021/08/02 01:51:44;;;;;;;3.88;1.77;;;15.40;95.00;;;;;;5015214;28;20100;-72
2021/08/02 01:54:32;;;;;;;4.35;1.45;;;15.40;94.90;;;;;;5020548;28;20049;-71
2021/08/02 01:57:06;;;;;;;4.75;1.30;;;15.40;94.50;;;;;;5014375;28;20026;-71
2021/08/02 01:59:36;;;;;;;5.63;1.30;;;15.30;94.70;;;;;;5010817;28;20033;-71
2021/08/02 02:02:09;;;;;;;2.83;1.25;;;15.20;94.80;;;;;;5013169;28;20022;-71
2021/08/02 02:04:44;;;;;;;3.13;1.30;;;15.30;95.10;;;;;;5017744;28;20033;-71
2021/08/02 02:07:11;;;;;;;3.15;1.35;;;15.20;95.20;;;;;;5014859;28;20096;-72
2021/08/02 02:09:39;;;;;;;3.65;1.80;;;15.20;94.90;;;;;;5015590;28;20029;-71
2021/08/02 02:12:06;;;;;;;4.30;1.45;;;15.10;95.20;;;;;;5018893;28;20052;-70
2021/08/02 02:14:36;;;;;;;7.10;1.38;;;15.10;94.80;;;;;;5011857;28;20121;-70
2021/08/02 02:17:03;;;;;;;4.50;1.30;;;15.00;95.10;;;;;;5013404;28;20030;-71
2021/08/02 02:19:30;;;;;;;3.72;1.50;;;15.00;94.90;;;;;;5016591;28;20118;-71
2021/08/02 02:21:57;;;;;;;4.43;1.25;;;15.00;95.10;;;;;;5018328;28;20174;-73
2021/08/02 02:24:24;;;;;;;5.93;1.55;;;15.00;95.10;;;;;;5012801;28;20488;-71
2021/08/02 02:26:51;;;;;;;5.97;1.70;;;15.00;94.80;;;;;;5016538;28;20087;-70
2021/08/02 02:29:20;;;;;;;5.50;1.65;;;14.90;95.00;;;;;;5013500;28;20099;-71
2021/08/02 02:31:47;;;;;;;4.05;1.63;;;14.90;95.10;;;;;;5010267;28;20415;-71
2021/08/02 02:34:14;;;;;;;3.13;1.48;;;14.90;95.00;;;;;;5021101;28;20030;-71
2021/08/02 02:36:42;;;;;;;3.53;1.30;;;14.90;94.90;;;;;;5014541;28;20049;-72
2021/08/02 02:39:09;;;;;;;4.00;1.27;;;14.80;95.10;;;;;;5016989;28;20035;-71
2021/08/02 02:41:35;;;;;;;6.53;1.60;;;14.80;95.20;;;;;;5019238;28;20072;-73
2021/08/02 02:44:03;;;;;;;3.67;1.30;;;14.80;94.90;;;;;;5018626;28;20396;-71
2021/08/02 02:46:30;;;;;;;2.33;1.20;;;14.90;95.10;;;;;;5026308;28;20045;-71
2021/08/02 02:48:58;;;;;;;4.82;1.30;;;14.90;95.10;;;;;;5017346;28;20096;-71
2021/08/02 02:51:26;;;;;;;3.83;1.40;;;14.90;95.20;;;;;;5016961;28;20036;-71
2021/08/02 02:53:53;;;;;;;4.82;1.40;;;15.00;95.00;;;;;;5016767;28;20034;-71
2021/08/02 02:56:20;;;;;;;2.60;1.27;;;15.00;95.00;;;;;;5014607;28;20034;-71
2021/08/02 02:58:46;;;;;;;5.13;1.50;;;15.00;95.00;;;;;;5009846;28;20391;-70
2021/08/02 03:01:20;;;;;;;5.47;2.20;;;15.00;94.70;;;;;;5014795;28;20026;-71
2021/08/02 03:03:50;;;;;;;4.07;1.30;;;14.90;94.70;;;;;;5012861;28;20032;-71
2021/08/02 03:06:17;;;;;;;3.93;1.17;;;14.90;94.90;;;;;;5017095;28;20029;-71
2021/08/02 03:08:44;;;;;;;5.43;1.33;;;15.00;94.70;;;;;;5010365;28;20324;-72
2021/08/02 03:11:14;;;;;;;5.43;1.33;;;14.90;94.80;;;;;;5014991;28;20541;-71
2021/08/02 03:13:40;;;;;;;4.78;1.58;;;14.90;94.90;;;;;;5015822;28;20064;-71
2021/08/02 03:16:06;;;;;;;4.18;1.48;;;15.00;94.90;;;;;;5009972;28;20061;-72
2021/08/02 03:18:33;;;;;;;5.55;1.85;;;15.00;94.90;;;;;;5011466;28;20034;-71
2021/08/02 03:20:59;;;;;;;4.45;1.35;;;15.00;95.00;;;;;;5013663;28;20018;-71
2021/08/02 03:23:45;;;;;;;3.22;1.50;;;15.00;94.40;;;;;;5014607;28;20472;-71
2021/08/02 03:26:30;;;;;;;6.22;1.60;;;15.00;94.80;;;;;;5014120;28;20038;-71
2021/08/02 03:29:02;;;;;;;6.60;1.70;;;15.00;94.50;;;;;;5015488;28;20100;-70
2021/08/02 03:31:34;;;;;;;4.32;1.27;;;14.90;94.80;;;;;;5016369;28;20026;-71
2021/08/02 03:34:04;;;;;;;4.40;1.45;;;15.00;94.90;;;;;;5015853;28;20034;-72
2021/08/02 03:36:30;;;;;;;4.75;1.67;;;15.00;95.00;;;;;;5010488;28;20041;-71
2021/08/02 03:38:57;;;;;;;8.27;1.60;;;15.00;94.80;;;;;;5016869;28;20030;-71
2021/08/02 03:41:23;;;;;;;3.88;1.77;;;14.90;94.80;;;;;;5015827;28;20072;-72
2021/08/02 03:43:50;;;;;;;6.65;1.70;;;15.00;94.80;;;;;;5011618;28;20044;-71
2021/08/02 03:46:17;;;;;;;5.60;1.55;;;15.00;95.00;;;;;;5015649;28;20032;-71
2021/08/02 03:48:43;;;;;;;2.70;1.40;;;15.00;94.80;;;;;;5008666;28;20034;-72
2021/08/02 03:51:09;;;;;;;3.83;1.10;;;15.00;94.90;;;;;;5017645;28;20022;-72
2021/08/02 03:53:43;;;;;;;4.57;1.55;;;15.00;95.10;;;;;;5024276;28;20025;-71
2021/08/02 03:56:11;;;;;;;5.72;1.77;;;15.00;94.90;;;;;;5012432;28;20040;-72
2021/08/02 03:58:37;;;;;;;5.60;1.75;;;15.00;95.10;;;;;;5014198;28;20033;-72
2021/08/02 04:01:04;;;;;;;5.35;1.67;;;15.00;95.00;;;;;;5008918;28;20029;-71
2021/08/02 04:03:30;;;;;;;3.85;1.33;;;15.00;94.60;;;;;;5013486;28;20029;-71
2021/08/02 04:05:57;;;;;;;5.90;1.75;;;15.00;94.70;;;;;;5014922;28;20492;-71
2021/08/02 04:08:24;;;;;;;3.83;1.42;;;15.00;94.40;;;;;;5017928;28;20034;-72
2021/08/02 04:10:50;;;;;;;2.53;1.10;;;15.00;94.60;;;;;;5010284;28;20514;-72
2021/08/02 04:13:17;;;;;;;1.95;1.23;;;14.90;94.70;;;;;;5012762;28;20029;-72
2021/08/02 04:15:43;;;;;;;4.13;1.23;;;15.00;94.90;;;;;;5015350;28;20029;-70
2021/08/02 04:18:09;;;;;;;3.00;1.42;;;15.00;94.80;;;;;;5017644;28;20084;-70
2021/08/02 04:20:35;;;;;;;5.00;1.70;;;15.00;94.90;;;;;;5013800;28;20568;-71
2021/08/02 04:23:00;;;;;;;4.90;1.70;;;15.00;94.80;;;;;;5016176;28;20022;-71
2021/08/02 04:25:26;;;;;;;5.47;1.70;;;15.00;94.90;;;;;;5015108;28;20018;-71
2021/08/02 04:27:52;;;;;;;4.53;1.50;;;15.00;95.10;;;;;;5016443;28;20030;-72
2021/08/02 04:30:18;;;;;;;3.35;1.40;;;15.10;95.00;;;;;;5012383;28;20030;-72
2021/08/02 04:32:45;;;;;;;3.25;1.33;;;15.10;95.00;;;;;;5014267;28;20087;-71
2021/08/02 04:35:11;;;;;;;3.67;1.20;;;15.10;94.80;;;;;;5018856;28;20068;-71
2021/08/02 04:37:37;;;;;;;4.60;1.50;;;15.10;94.80;;;;;;5013742;28;20032;-71
2021/08/02 04:40:05;;;;;;;2.70;1.40;;;15.10;94.70;;;;;;5011576;28;20041;-71
2021/08/02 04:42:38;;;;;;;4.65;1.27;;;15.10;94.80;;;;;;5010627;28;20037;-71
2021/08/02 04:45:05;;;;;;;6.93;1.73;;;15.20;94.80;;;;;;5012961;28;20033;-73
2021/08/02 04:47:31;;;;;;;3.40;1.20;;;15.20;94.50;;;;;;5014921;28;20072;-72
2021/08/02 04:49:57;;;;;;;2.92;1.20;;;15.30;94.70;;;;;;5013873;28;20365;-72
2021/08/02 04:52:23;;;;;;;7.65;1.80;;;15.30;94.60;;;;;;5018348;28;20086;-74
2021/08/02 04:54:49;;;;;;;4.22;1.50;;;15.30;94.60;;;;;;5013538;28;20063;-72
2021/08/02 04:57:14;;;;;;;6.68;1.65;;;15.30;94.50;;;;;;5014099;28;20116;-70
2021/08/02 04:59:42;;;;;;;5.65;1.83;;;15.30;94.70;;;;;;5008982;28;20627;-71
2021/08/02 05:02:08;;;;;;;2.85;1.50;;;15.20;94.50;;;;;;5011198;28;20014;-72
2021/08/02 05:04:34;;;;;;;4.43;1.92;;;15.20;94.80;;;;;;5015215;28;20034;-71
2021/08/02 05:07:00;;;;;;;3.35;1.80;;;15.20;94.50;;;;;;5013316;28;20376;-72
2021/08/02 05:09:26;;;;;;;5.85;1.58;;;15.20;94.80;;;;;;5012159;28;20114;-71
2021/08/02 05:11:52;;;;;;;7.10;2.25;;;15.20;94.50;;;;;;5018992;28;20034;-71
2021/08/02 05:14:18;;;;;;;6.90;2.15;;;15.20;94.50;;;;;;5015845;28;20598;-70
2021/08/02 05:16:44;;;;;;;3.33;1.83;;;15.20;94.70;;;;;;5014283;28;20033;-71
2021/08/02 05:19:13;;;;;;;3.85;1.40;;;15.20;94.80;;;;;;5010765;28;20175;-71
2021/08/02 05:21:39;;;;;;;4.70;1.52;;;15.20;95.00;;;;;;5019592;28;20052;-71
2021/08/02 05:24:05;;;;;;;6.60;1.50;;;15.20;95.20;;;;;;5019887;28;20026;-71
2021/08/02 05:26:31;;;;;;;4.07;1.75;;;15.20;95.40;;;;;;5012157;28;20018;-71
2021/08/02 05:28:57;;;;;;;5.80;1.65;;;15.30;95.50;;;;;;5020043;28;20037;-70
2021/08/02 05:31:22;;;;;;;4.70;1.80;;;15.30;95.40;;;;;;5012063;28;20681;-70
2021/08/02 05:33:48;;;;;;;4.60;1.83;;;15.30;95.40;;;;;;5015470;28;20484;-72
2021/08/02 05:36:14;;;;;;;3.72;1.75;;;15.30;95.40;;;;;;5014558;28;20069;-71
2021/08/02 05:38:40;;;;;;;6.20;2.05;;;15.30;95.40;;;;;;5013051;28;20551;-71
2021/08/02 05:41:06;;;;;;;2.25;1.48;;;15.30;95.10;;;;;;5016365;28;20101;-71
2021/08/02 05:43:32;;;;;;;4.43;1.73;;;15.40;95.20;;;;;;5032804;28;20088;-70
2021/08/02 05:45:58;;;;;;;5.50;2.00;;;15.30;95.10;;;;;;5019117;28;20096;-71
2021/08/02 05:48:23;;;;;;;5.30;1.60;;;15.40;95.10;;;;;;5017619;28;20033;-70
2021/08/02 05:50:49;;;;;;;5.25;1.67;;;15.40;95.10;;;;;;5021957;28;20088;-71
2021/08/02 05:53:15;;;;;;;4.93;1.67;;;15.40;94.80;;;;;;5024334;28;20034;-71
2021/08/02 05:55:41;;;;;;;5.82;1.63;;;15.40;94.90;;;;;;5011447;28;20061;-71
2021/08/02 05:58:06;;;;;;;5.03;1.75;;;15.50;95.00;;;;;;5013040;28;20032;-71
2021/08/02 06:00:32;;;;;;;5.30;1.50;;;15.50;95.00;;;;;;5013737;28;20021;-71
2021/08/02 06:02:58;;;;;;;4.43;1.80;;;15.50;94.80;;;;;;5018137;28;20026;-71
2021/08/02 06:05:23;;;;;;;4.38;1.80;;;15.50;94.50;;;;;;5019133;28;20022;-71
2021/08/02 06:07:49;;;;;;;3.20;1.38;;;15.50;94.60;;;;;;5015948;28;20101;-71
2021/08/02 06:10:15;;;;;;;5.88;1.38;;;15.50;94.60;;;;;;5010649;28;20037;-72
2021/08/02 06:12:41;;;;;;;3.08;1.20;;;15.60;94.60;;;;;;5019100;28;20033;-71
2021/08/02 06:15:07;;;;;;;3.75;1.40;;;15.60;94.40;;;;;;5012335;28;20025;-71
2021/08/02 06:17:33;;;;;;;2.33;1.05;;;15.70;94.00;;;;;;5015403;28;20116;-71
2021/08/02 06:20:00;;;;;;;2.83;1.30;;;15.70;94.10;;;;;;5003192;28;20105;-71
2021/08/02 06:22:25;;;;;;;4.10;1.67;;;15.70;94.00;;;;;;5018128;28;20109;-72
2021/08/02 06:24:51;;;;;;;3.97;1.60;;;15.80;93.80;;;;;;5013634;28;20577;-71
2021/08/02 06:27:17;;;;;;;3.38;1.52;;;15.80;93.70;;;;;;5023070;28;20082;-75
2021/08/02 06:29:42;;;;;;;2.53;1.00;;;15.80;93.50;;;;;;5016092;28;20399;-72
2021/08/02 06:32:08;;;;;;;3.50;1.55;;;15.80;93.50;;;;;;5022201;28;20029;-70
2021/08/02 06:34:34;;;;;;;3.88;1.58;;;15.90;93.60;;;;;;5014662;28;20057;-72
2021/08/02 06:37:00;;;;;;;4.65;1.58;;;15.90;93.40;;;;;;5016192;28;20065;-74
2021/08/02 06:39:26;;;;;;;6.43;1.90;;;16.00;93.60;;;;;;5014932;28;20021;-74
2021/08/02 06:41:52;;;;;;;5.40;2.22;;;16.10;93.30;;;;;;5012998;28;20033;-76
2021/08/02 06:44:17;;;;;;;8.52;2.90;;;16.20;93.40;;;;;;5017388;28;20515;-75
2021/08/02 06:46:43;;;;;;;5.57;2.13;;;16.20;93.20;;;;;;5024162;28;20025;-74
2021/08/02 06:49:09;;;;;;;7.03;2.13;;;16.10;93.10;;;;;;5016312;28;20555;-74
2021/08/02 06:51:35;;;;;;;4.50;1.75;;;16.20;93.20;;;;;;5017677;28;20026;-73
2021/08/02 06:54:00;;;;;;;4.60;1.55;;;16.10;93.20;;;;;;5013586;28;20431;-73
2021/08/02 06:56:26;;;;;;;6.38;1.75;;;16.20;93.30;;;;;;5028138;28;20033;-73
2021/08/02 06:58:53;;;;;;;4.68;1.63;;;16.20;93.30;;;;;;5014686;28;20025;-79
2021/08/02 07:01:18;;;;;;;8.00;1.95;;;16.30;93.20;;;;;;5020217;28;20025;-79
2021/08/02 07:03:44;;;;;;;5.72;1.70;;;16.20;93.20;;;;;;5022363;28;20032;-79
2021/08/02 07:06:10;;;;;;;6.20;1.60;;;16.30;93.10;;;;;;5022716;28;20026;-78
2021/08/02 07:08:39;;;;;;;6.03;1.83;;;16.40;93.20;;;;;;5017135;28;20076;-76
2021/08/02 07:11:08;;;;;;;9.32;1.67;;;16.40;93.20;;;;;;5017609;28;20125;-76
2021/08/02 07:13:34;;;;;;;7.75;2.00;;;16.50;92.70;;;;;;5011993;28;20030;-76
2021/08/02 07:16:00;;;;;;;5.07;2.08;;;16.60;92.50;;;;;;5013421;28;20075;-78
2021/08/02 07:18:27;;;;;;;6.65;1.85;;;16.60;92.40;;;;;;5004119;28;20033;-75
2021/08/02 07:20:53;;;;;;;6.65;1.88;;;16.70;92.20;;;;;;5016081;28;20022;-76
2021/08/02 07:23:19;;;;;;;6.82;1.60;;;16.80;92.10;;;;;;5019096;28;20037;-77
2021/08/02 07:25:45;;;;;;;5.10;2.08;;;16.90;91.70;;;;;;4995349;28;20400;-76
2021/08/02 07:28:11;;;;;;;4.70;1.40;;;16.80;91.90;;;;;;5011155;28;20098;-74
2021/08/02 07:30:37;;;;;;;1.98;1.20;;;16.80;91.90;;;;;;5010109;28;20030;-74
2021/08/02 07:33:03;;;;;;;3.13;1.42;;;16.80;92.00;;;;;;5012730;28;20028;-71
2021/08/02 07:35:29;;;;;;;3.97;1.63;;;16.70;92.60;;;;;;5012754;28;20038;-71
2021/08/02 07:37:54;;;;;;;6.68;2.10;;;16.60;93.10;;;;;;5015572;28;20029;-70
2021/08/02 07:40:20;;;;;;;3.55;1.70;;;16.60;93.60;;;;;;5010644;28;20033;-71
2021/08/02 07:42:46;;;;;;;6.38;1.63;;;16.50;93.70;;;;;;5009635;28;20182;-70
2021/08/02 07:45:12;;;;;;;3.92;1.35;;;16.30;94.10;;;;;;5012487;28;20033;-70
2021/08/02 07:47:38;;;;;;;2.67;1.30;;;16.30;93.90;;;;;;5012400;28;20057;-70
2021/08/02 07:50:04;;;;;;;3.30;1.17;;;16.20;94.40;;;;;;5018751;28;20072;-70
2021/08/02 07:52:32;;;;;;;2.38;1.00;;;16.30;94.40;;;;;;5017764;28;20083;-70
2021/08/02 07:54:58;;;;;;;4.57;1.70;;;16.30;94.30;;;;;;5011605;28;20092;-70
2021/08/02 07:57:24;;;;;;;2.75;1.00;;;16.40;94.40;;;;;;5012205;28;20042;-69
2021/08/02 07:59:50;;;;;;;1.77;0.95;;;16.50;94.30;;;;;;5010855;28;20076;-69
2021/08/02 08:02:16;;;;;;;4.10;1.10;;;16.60;94.10;;;;;;5004373;28;20467;-69
2021/08/02 08:04:41;;;;;;;4.05;1.70;;;16.60;94.10;;;;;;5012244;28;20137;-69
2021/08/02 08:07:07;;;;;;;2.42;1.15;;;16.70;94.00;;;;;;5007694;28;20030;-70
2021/08/02 08:09:34;;;;;;;2.38;1.08;;;16.80;93.70;;;;;;5015259;28;20029;-68
2021/08/02 08:12:00;;;;;;;5.20;1.67;;;16.80;93.50;;;;;;5015417;28;20113;-69
2021/08/02 08:14:26;;;;;;;4.45;1.10;;;17.00;93.80;;;;;;5022064;28;20095;-69
2021/08/02 08:16:52;;;;;;;2.40;1.42;;;17.10;93.60;;;;;;5019195;28;20099;-69
2021/08/02 08:19:17;;;;;;;3.72;1.58;;;17.10;93.30;;;;;;5032658;28;20030;-68
2021/08/02 08:21:44;;;;;;;14.90;2.38;;;17.20;92.80;;;;;;5008584;28;20686;-68
2021/08/02 08:24:09;;;;;;;4.63;1.70;;;17.20;92.20;;;;;;5012090;28;20496;-69
2021/08/02 08:26:35;;;;;;;3.78;1.65;;;17.30;92.40;;;;;;5009874;28;20032;-68
2021/08/02 08:29:02;;;;;;;2.40;1.15;;;17.30;92.00;;;;;;5011333;28;20077;-68
2021/08/02 08:31:28;;;;;;;2.85;1.30;;;17.40;92.20;;;;;;5012024;28;20128;-69
2021/08/02 08:33:55;;;;;;;3.90;1.30;;;17.40;92.00;;;;;;5014268;28;20424;-68
2021/08/02 08:36:21;;;;;;;6.00;1.60;;;17.50;92.00;;;;;;5014439;28;20095;-68
2021/08/02 08:38:47;;;;;;;6.60;1.23;;;17.60;91.90;;;;;;5013272;28;20480;-68
2021/08/02 08:41:13;;;;;;;6.75;1.40;;;17.60;90.90;;;;;;5013849;28;20029;-68
2021/08/02 08:43:40;;;;;;;2.35;1.10;;;17.50;90.70;;;;;;5016239;28;20037;-67
2021/08/02 08:46:06;;;;;;;3.25;1.15;;;17.50;90.50;;;;;;5020562;28;20014;-68
2021/08/02 08:48:32;;;;;;;4.10;0.98;;;17.60;90.70;;;;;;5014648;28;20443;-67
2021/08/02 08:51:01;;;;;;;2.40;0.95;;;17.60;90.80;;;;;;5017608;28;20043;-68
2021/08/02 08:53:28;;;;;;;2.92;1.20;;;17.70;90.80;;;;;;5019713;28;20034;-67
2021/08/02 08:55:54;;;;;;;3.50;2.17;;;17.80;90.80;;;;;;5022374;28;20504;-67
2021/08/02 08:58:19;;;;;;;2.15;1.20;;;17.80;90.40;;;;;;5011633;28;20041;-67
2021/08/02 09:00:45;;;;;;;3.05;1.45;;;17.80;90.10;;;;;;5012961;28;20030;-68
2021/08/02 09:03:15;;;;;;;3.25;1.20;;;17.70;90.10;;;;;;5013399;28;20105;-67
2021/08/02 09:05:42;;;;;;;3.00;1.40;;;17.70;90.30;;;;;;5013730;28;20010;-68
2021/08/02 09:08:13;;;;;;;4.80;1.40;;;17.80;90.40;;;;;;5021499;28;20072;-67
2021/08/02 09:10:40;;;;;;;4.47;1.13;;;17.80;90.30;;;;;;5020025;28;20432;-67
2021/08/02 09:13:06;;;;;;;2.55;1.38;;;17.80;90.70;;;;;;5017820;28;20087;-68
2021/08/02 09:15:47;;;;;;;2.70;1.25;;;17.80;89.90;;;;;;5019839;28;20038;-68
2021/08/02 09:18:21;;;;;;;3.00;1.52;;;17.80;89.70;;;;;;5021554;28;20037;-67
2021/08/02 09:20:47;;;;;;;2.50;1.50;;;17.70;90.10;;;;;;5019522;28;20018;-67
2021/08/02 09:23:14;;;;;;;3.13;1.83;;;17.80;90.10;;;;;;5015273;28;20522;-68
2021/08/02 09:25:51;;;;;;;3.85;1.52;;;17.80;89.90;;;;;;5020483;28;20093;-67
2021/08/02 09:28:21;;;;;;;3.30;1.95;;;17.90;89.50;;;;;;5023725;28;20049;-67
2021/08/02 09:31:02;;;;;;;6.88;1.90;;;18.00;89.10;;;;;;5020014;28;20515;-67
2021/08/02 09:33:41;;;;;;;;;;;18.00;86.90;;;;;;5020005;28;20034;-69
2021/08/02 09:36:07;;;;;;;3.72;1.50;;;18.10;87.50;;;;;;5018231;28;19920;-68
2021/08/02 09:38:32;;;;;;;5.10;1.50;;;18.20;87.80;;;;;;5017933;28;20030;-68
2021/08/02 09:40:58;;;;;;;4.15;1.40;;;18.30;86.90;;;;;;5014456;28;20021;-68
2021/08/02 09:43:29;;;;;;;3.08;1.40;;;18.30;86.10;;;;;;5019101;28;20026;-68
2021/08/02 09:46:00;;;;;;;3.53;1.40;;;18.40;85.20;;;;;;5018416;28;20049;-68
2021/08/02 09:48:37;;;;;;;4.35;1.10;;;18.40;84.20;;;;;;5016119;28;20088;-68
2021/08/02 09:51:12;;;;;;;4.22;0.90;;;18.50;84.50;;;;;;5019860;28;20750;-69
2021/08/02 09:53:42;;;;;;;4.07;1.20;;;18.60;84.60;;;;;;5013592;28;20413;-69
2021/08/02 09:56:10;;;;;;;4.53;1.30;;;18.60;84.90;;;;;;5020128;28;20645;-69
2021/08/02 09:58:36;;;;;;;4.45;1.30;;;18.70;84.50;;;;;;5014463;28;20034;-68
2021/08/02 10:01:02;;;;;;;5.60;1.58;;;18.70;82.40;;;;;;5013371;28;20084;-68
2021/08/02 10:03:30;;;;;;;2.70;1.25;;;18.70;81.60;;;;;;5019409;28;20026;-68
2021/08/02 10:05:56;;;;;;;8.90;1.38;;;18.70;82.10;;;;;;5019431;28;20033;-68
2021/08/02 10:08:22;;;;;;;2.20;1.10;;;18.60;80.50;;;;;;5013713;28;20484;-69
2021/08/02 10:10:48;;;;;;;5.72;1.40;;;18.80;80.60;;;;;;5018463;28;20060;-69
2021/08/02 10:13:22;;;;;;;4.20;1.30;;;18.90;79.80;;;;;;5022864;28;20080;-69
2021/08/02 10:15:58;;;;;;;7.20;1.42;;;18.80;78.40;;;;;;5019519;28;20032;-69
2021/08/02 10:18:25;;;;;;;2.63;1.42;;;18.70;79.80;;;;;;5013157;28;20132;-68
2021/08/02 10:21:06;;;;;;;3.22;1.10;;;18.80;78.40;;;;;;5011238;28;20476;-68
2021/08/02 10:23:32;;;;;;;2.67;1.02;;;18.80;78.80;;;;;;5023972;28;20394;-68
2021/08/02 10:25:58;;;;;;;2.72;0.98;;;18.90;77.80;;;;;;5023580;28;20057;-68
2021/08/02 10:28:24;;;;;;;2.72;1.20;;;19.00;80.20;;;;;;5016800;28;20033;-68
2021/08/02 10:31:06;;;;;;;5.90;1.70;;;19.00;76.00;;;;;;5014010;28;20047;-68
2021/08/02 10:33:37;;;;;;;5.10;1.45;;;19.00;76.40;;;;;;5015253;28;20033;-68
2021/08/02 10:36:14;;;;;;;3.70;1.55;;;19.10;74.40;;;;;;5019843;28;20033;-68
2021/08/02 10:38:51;;;;;;;5.75;1.55;;;19.10;76.40;;;;;;5016783;28;20504;-67
2021/08/02 10:41:30;;;;;;;4.55;1.10;;;19.20;75.80;;;;;;5011806;28;20025;-67
2021/08/02 10:43:57;;;;;;;4.07;1.00;;;19.00;78.70;;;;;;5016512;28;20109;-67
2021/08/02 10:46:28;;;;;;;3.67;1.20;;;18.80;80.90;;;;;;5016554;28;20112;-68
2021/08/02 10:48:55;;;;;;;6.72;2.97;;;18.60;82.50;;;;;;5019746;28;20539;-67
2021/08/02 10:51:24;;;;;;;5.50;2.28;;;18.50;82.10;;;;;;5017818;28;20044;-69
2021/08/02 10:54:02;;;;;;;4.15;1.50;;;18.30;82.90;;;;;;5016923;28;20112;-68
2021/08/02 10:56:30;;;;;;;3.08;1.35;;;18.20;85.20;;;;;;5013766;28;20052;-68
2021/08/02 10:58:56;;;;;;;2.45;1.25;;;18.00;86.10;;;;;;5017610;28;20032;-68
2021/08/02 11:01:27;;;;;;;3.58;1.25;;;17.90;86.90;;;;;;5012163;28;20472;-68
2021/08/02 11:03:57;;;;;;;3.55;1.42;;;17.90;87.70;;;;;;5019733;28;20033;-68
2021/08/02 11:06:26;;;;;;;6.88;1.55;;;17.80;87.30;;;;;;5016147;28;20022;-68
2021/08/02 11:08:54;;;;;;;2.60;1.13;;;17.70;88.00;;;;;;5015435;28;20034;-70
2021/08/02 11:11:26;;;;;;;6.28;1.23;;;17.60;88.60;;;;;;5013089;28;20034;-70
2021/08/02 11:14:09;;;;;;;4.38;1.30;;;17.50;88.60;;;;;;5012905;28;20108;-70
2021/08/02 11:16:49;;;;;;;4.55;1.70;;;17.50;89.10;;;;;;5011254;28;20080;-71
2021/08/02 11:19:28;;;;;;;3.60;1.52;;;17.60;89.70;;;;;;5009091;28;20546;-71
2021/08/02 11:21:57;;;;;;;5.97;1.67;;;17.70;88.90;;;;;;5017776;28;20373;-71
2021/08/02 11:24:24;;;;;;;2.03;1.10;;;17.80;87.90;;;;;;5012389;28;20483;-71
2021/08/02 11:26:58;;;;;;;4.05;1.95;;;17.90;88.30;;;;;;5007751;28;20488;-72
2021/08/02 11:29:27;;;;;;;5.43;1.70;;;18.00;87.30;;;;;;5013992;28;20531;-71
2021/08/02 11:32:09;;;;;;;3.78;1.40;;;18.10;88.10;;;;;;5015783;28;20160;-69
2021/08/02 11:34:35;;;;;;;4.38;1.33;;;18.30;87.80;;;;;;5020883;28;20030;-70
2021/08/02 11:37:13;;;;;;;5.13;1.60;;;18.30;84.50;;;;;;5012848;28;20029;-69
2021/08/02 11:39:57;;;;;;;2.75;1.27;;;18.50;85.60;;;;;;5012798;28;20057;-70
2021/08/02 11:42:22;;;;;;;2.70;1.27;;;19.00;85.30;;;;;;5011576;28;20508;-71
2021/08/02 11:44:51;;;;;;;4.25;1.30;;;19.40;84.60;;;;;;5015685;28;20040;-69
2021/08/02 11:47:18;;;;;;;3.25;1.10;;;19.50;83.00;;;;;;5011273;28;20026;-71
2021/08/02 11:49:45;;;;;;;2.25;0.98;;;19.50;82.50;;;;;;5018084;28;20040;-70
2021/08/02 11:52:18;;;;;;;3.00;1.30;;;19.70;82.20;;;;;;5013002;28;20038;-70
2021/08/02 11:54:47;;;;;;;6.28;1.17;;;20.10;81.30;;;;;;5011667;28;20113;-70
2021/08/02 11:57:22;;;;;;;5.28;2.13;;;20.20;79.00;;;;;;5013293;28;20036;-69
2021/08/02 11:59:56;;;;;;;2.95;1.35;;;20.40;79.40;;;;;;5005476;28;20492;-71
2021/08/02 12:02:39;;;;;;;4.32;1.33;;;20.40;78.70;;;;;;5012569;28;20034;-70
2021/08/02 12:05:18;;;;;;;11.93;2.35;;;20.20;77.00;;;;;;5015576;28;20498;-69
2021/08/02 12:07:44;;;;;;;3.15;1.13;;;20.10;78.90;;;;;;5014448;28;20036;-69
2021/08/02 12:10:18;;;;;;;5.28;1.33;;;20.10;79.00;;;;;;5011885;28;20484;-70
2021/08/02 12:12:55;;;;;;;3.33;1.75;;;20.10;80.10;;;;;;5010800;28;20029;-69
2021/08/02 12:15:21;;;;;;;7.22;2.20;;;20.10;80.60;;;;;;5012521;28;20037;-69
2021/08/02 12:17:52;;;;;;;5.93;1.50;;;20.20;79.90;;;;;;5013134;28;20117;-70
2021/08/02 12:20:38;;;;;;;2.50;1.27;;;20.60;78.80;;;;;;5010854;28;20033;-69
2021/08/02 12:23:08;;;;;;;5.53;1.75;;;20.70;78.60;;;;;;5019872;28;20029;-70
2021/08/02 12:25:43;;;;;;;3.88;1.17;;;20.60;78.30;;;;;;5015796;28;20068;-69
2021/08/02 12:28:09;;;;;;;3.92;1.30;;;20.50;79.10;;;;;;5008054;28;20030;-71
2021/08/02 12:30:36;;;;;;;5.93;1.58;;;20.30;79.70;;;;;;5027205;28;20109;-70
2021/08/02 12:33:03;;;;;;;6.97;1.83;;;20.00;80.20;;;;;;5017492;28;20602;-72
2021/08/02 12:35:29;;;;;;;4.32;1.35;;;19.70;81.50;;;;;;5016292;28;20504;-70
2021/08/02 12:37:59;;;;;;;4.47;1.48;;;19.40;82.40;;;;;;5013379;28;20084;-70
2021/08/02 12:40:24;;;;;;;4.15;1.42;;;19.20;83.60;;;;;;5014467;28;20049;-69
2021/08/02 12:42:50;;;;;;;4.63;1.63;;;19.00;84.80;;;;;;5022397;28;20475;-69
2021/08/02 12:45:17;;;;;;;3.70;1.58;;;18.90;86.60;;;;;;5018079;28;20025;-70
2021/08/02 12:47:43;;;;;;;4.80;1.77;;;18.60;88.50;;;;;;5016198;28;20105;-69
2021/08/02 12:50:11;;;;;;;4.88;1.77;;;18.40;89.50;;;;;;5015793;28;20042;-70
2021/08/02 12:52:38;;;;;;;3.20;1.40;;;18.30;90.00;;;;;;5005956;28;20021;-70
2021/08/02 12:55:06;;;;;;;5.35;1.92;;;18.20;90.50;;;;;;5018769;28;20076;-70
2021/08/02 12:57:34;;;;;;;3.95;1.65;;;18.30;90.70;;;;;;5015689;28;20069;-71